Time;durP1;ratioP1;P1;durP2;ratioP2;P2;SDS_P1;SDS_P2;PMS_P1;PMS_P2;Temp;Humidity;BMP_temperature;BMP_pressure;BME280_temperature;BME280_humidity;BME280_pressure;Samples;Min_cycle;Max_cycle;Signal;HPM_P1;HPM_P2
2022/10/30 00:00:53;;;;;;;19.27;9.90;;;;;;;15.22;98.93;99775.19;1679999;84;21085;-65
2022/10/30 00:03:19;;;;;;;17.27;9.65;;;;;;;15.16;99.96;99772.94;1680216;85;21118;-64
2022/10/30 00:05:48;;;;;;;21.73;9.48;;;;;;;15.22;99.41;99773.86;1680100;85;21082;-65
2022/10/30 00:08:16;;;;;;;17.07;9.90;;;;;;;15.20;99.21;99782.38;1638126;86;21098;-65
2022/10/30 00:10:45;;;;;;;20.70;9.98;;;;;;;15.16;99.91;99778.69;1680348;85;21058;-65
2022/10/30 00:13:12;;;;;;;20.52;8.93;;;;;;;15.26;98.71;99780.69;1680237;85;21089;-66
2022/10/30 00:15:39;;;;;;;20.95;9.88;;;;;;;15.36;98.09;99782.77;1680173;85;21181;-65
2022/10/30 00:18:05;;;;;;;18.55;8.85;;;;;;;15.25;98.72;99781.65;1637543;87;21255;-66
2022/10/30 00:20:32;;;;;;;18.73;8.70;;;;;;;15.34;98.15;99780.20;1679944;85;21039;-66
2022/10/30 00:23:00;;;;;;;15.70;9.18;;;;;;;15.32;98.02;99784.75;1679947;85;21078;-66
2022/10/30 00:25:27;;;;;;;15.93;9.60;;;;;;;15.30;97.69;99782.21;1680022;85;21165;-65
2022/10/30 00:27:54;;;;;;;16.75;9.73;;;;;;;15.14;98.65;99780.13;1680347;85;21216;-66
2022/10/30 00:30:21;;;;;;;18.48;9.18;;;;;;;15.13;98.29;99775.75;1680156;85;21112;-65
2022/10/30 00:32:48;;;;;;;17.48;9.53;;;;;;;15.20;97.38;99773.09;1638171;87;21154;-64
2022/10/30 00:35:17;;;;;;;19.60;8.80;;;;;;;15.20;97.90;99765.14;1680258;85;21070;-65
2022/10/30 00:37:44;;;;;;;16.80;9.23;;;;;;;15.22;97.32;99756.62;1680268;85;21124;-67
2022/10/30 00:40:15;;;;;;;16.35;9.10;;;;;;;15.27;97.28;99761.64;1677784;85;21316;-66
2022/10/30 00:42:42;;;;;;;14.70;8.63;;;;;;;15.19;97.42;99763.45;1720931;83;21728;-65
2022/10/30 00:45:13;;;;;;;18.70;8.83;;;;;;;15.16;97.38;99759.67;1716781;82;21120;-65
2022/10/30 00:47:44;;;;;;;17.37;9.35;;;;;;;15.29;96.31;99767.22;1715430;83;21132;-64
2022/10/30 00:50:25;;;;;;;15.58;8.85;;;;;;;15.29;96.22;99773.01;1714030;83;21268;-65
2022/10/30 00:52:57;;;;;;;13.50;8.18;;;;;;;15.21;96.39;99777.47;1714677;83;22037;-65
2022/10/30 00:55:34;;;;;;;16.07;9.35;;;;;;;15.22;96.20;99768.55;1714861;83;21127;-65
2022/10/30 00:58:01;;;;;;;18.07;9.55;;;;;;;15.19;96.02;99766.10;1715472;83;21055;-65
2022/10/30 01:00:29;;;;;;;13.20;7.90;;;;;;;15.14;95.84;99776.16;1710291;83;21056;-65
2022/10/30 01:02:57;;;;;;;17.67;8.95;;;;;;;15.14;96.00;99775.27;1673847;84;21104;-64
2022/10/30 01:05:24;;;;;;;18.60;8.38;;;;;;;15.16;95.65;99769.41;1692030;84;21096;-65
2022/10/30 01:07:52;;;;;;;14.00;7.83;;;;;;;15.13;95.64;99777.08;1691979;84;21057;-65
2022/10/30 01:10:19;;;;;;;15.85;8.23;;;;;;;15.07;95.56;99764.22;1691968;84;21124;-64
2022/10/30 01:12:45;;;;;;;14.43;7.97;;;;;;;15.01;95.92;99769.41;1674198;84;21105;-65
2022/10/30 01:15:12;;;;;;;13.68;7.60;;;;;;;15.03;95.97;99770.65;1691644;84;21140;-65
2022/10/30 01:17:58;;;;;;;15.63;8.48;;;;;;;14.90;95.89;99766.07;1691677;84;21554;-65
2022/10/30 01:20:52;;;;;;;14.15;8.15;;;;;;;15.10;95.07;99768.00;1691995;84;21048;-67
2022/10/30 01:23:33;;;;;;;15.05;9.03;;;;;;;15.01;95.37;99772.06;1691889;84;21097;-63
2022/10/30 01:26:14;;;;;;;16.12;8.45;;;;;;;14.95;95.35;99771.09;1691877;84;21112;-64
2022/10/30 01:29:22;;;;;;;14.10;8.03;;;;;;;14.97;94.64;99769.69;1691987;84;21109;-63
2022/10/30 01:32:39;;;;;;;11.28;7.80;;;;;;;14.87;94.67;99774.22;1691865;84;21322;-63
2022/10/30 01:35:23;;;;;;;14.78;7.22;;;;;;;14.82;95.41;99760.40;1691626;84;21045;-64
2022/10/30 01:38:05;;;;;;;15.53;7.78;;;;;;;14.94;94.70;99740.72;1691828;84;21562;-63
2022/10/30 01:40:32;;;;;;;13.18;7.35;;;;;;;14.95;94.12;99742.41;1685861;84;21061;-63
2022/10/30 01:42:59;;;;;;;14.70;7.35;;;;;;;14.84;94.46;99751.89;1684527;85;21069;-64
2022/10/30 01:45:51;;;;;;;16.42;8.43;;;;;;;14.95;93.85;99746.39;1703512;84;21150;-63
2022/10/30 01:48:53;;;;;;;18.15;7.60;;;;;;;14.85;94.44;99758.03;1685678;84;21147;-63
2022/10/30 01:51:52;;;;;;;13.22;7.17;;;;;;;14.76;95.21;99759.91;1706960;84;21100;-63
2022/10/30 01:54:45;;;;;;;11.48;7.12;;;;;;;14.81;94.46;99753.38;1707234;83;21522;-63
2022/10/30 01:57:24;;;;;;;10.72;7.60;;;;;;;14.80;94.13;99772.05;1707109;84;21085;-64
2022/10/30 02:00:09;;;;;;;16.75;7.80;;;;;;;14.77;94.38;99778.39;1706935;84;21129;-64
2022/10/30 02:02:45;;;;;;;13.18;7.97;;;;;;;14.81;93.92;99779.88;1684359;84;21046;-64
2022/10/30 02:05:17;;;;;;;16.52;8.15;;;;;;;14.84;93.97;99775.74;1684388;84;21045;-64
2022/10/30 02:07:44;;;;;;;12.30;7.05;;;;;;;14.87;93.93;99774.22;1698180;84;21069;-64
2022/10/30 02:10:11;;;;;;;14.68;7.67;;;;;;;14.85;93.56;99762.86;1674812;85;21085;-64
2022/10/30 02:12:39;;;;;;;18.00;7.33;;;;;;;14.87;93.17;99766.75;1684401;85;21149;-64
2022/10/30 02:15:08;;;;;;;15.50;7.60;;;;;;;14.99;92.56;99766.47;1683894;84;21097;-64
2022/10/30 02:17:38;;;;;;;14.43;7.55;;;;;;;14.83;92.84;99776.67;1684543;84;21093;-64
2022/10/30 02:20:07;;;;;;;16.60;7.60;;;;;;;14.77;93.08;99788.99;1673859;85;21101;-64
2022/10/30 02:22:34;;;;;;;16.87;7.37;;;;;;;14.74;93.42;99804.21;1683978;84;21081;-63
2022/10/30 02:25:01;;;;;;;15.55;7.22;;;;;;;14.72;93.51;99795.02;1684185;84;21601;-64
2022/10/30 02:27:29;;;;;;;18.55;7.20;;;;;;;14.73;93.25;99786.13;1684356;85;21045;-63
2022/10/30 02:29:56;;;;;;;16.82;8.08;;;;;;;14.73;93.16;99787.94;1684175;84;21061;-64
2022/10/30 02:32:23;;;;;;;14.87;7.42;;;;;;;14.60;93.72;99782.02;1684120;84;21053;-64
2022/10/30 02:34:50;;;;;;;13.78;7.00;;;;;;;14.59;94.05;99791.41;1684289;85;21589;-63
2022/10/30 02:37:17;;;;;;;14.50;6.90;;;;;;;14.67;93.14;99785.16;1683978;85;21612;-64
2022/10/30 02:39:43;;;;;;;12.70;6.87;;;;;;;14.80;92.51;99788.80;1688677;83;21072;-64
2022/10/30 02:42:11;;;;;;;14.38;7.50;;;;;;;14.67;93.15;99782.52;1696667;84;21029;-64
2022/10/30 02:44:37;;;;;;;15.60;7.90;;;;;;;14.70;92.93;99795.60;1708609;83;21080;-64
2022/10/30 02:47:04;;;;;;;14.18;7.53;;;;;;;14.46;94.20;99800.02;1720226;83;21116;-63
2022/10/30 02:49:32;;;;;;;12.55;7.40;;;;;;;14.48;94.23;99807.89;1720402;83;21355;-64
2022/10/30 02:52:00;;;;;;;13.68;7.62;;;;;;;14.48;94.22;99795.49;1720245;83;21053;-63
2022/10/30 02:54:27;;;;;;;12.18;7.22;;;;;;;14.39;94.45;99811.92;1720270;83;21021;-63
2022/10/30 02:56:55;;;;;;;17.42;7.40;;;;;;;14.45;94.12;99806.76;1720350;83;21068;-63
2022/10/30 02:59:22;;;;;;;16.80;7.03;;;;;;;14.33;95.17;99814.91;1720388;83;21575;-63
2022/10/30 03:01:49;;;;;;;12.15;6.80;;;;;;;14.30;95.07;99808.48;1702675;83;21209;-64
2022/10/30 03:04:16;;;;;;;15.10;6.55;;;;;;;14.35;94.74;99806.41;1696762;84;21060;-64
2022/10/30 03:06:43;;;;;;;12.78;6.90;;;;;;;14.38;94.41;99816.86;1696555;84;21053;-64
2022/10/30 03:09:09;;;;;;;16.45;7.42;;;;;;;14.42;93.90;99817.06;1696391;84;21124;-64
2022/10/30 03:11:36;;;;;;;13.48;7.12;;;;;;;14.48;93.62;99814.52;1696770;84;21108;-64
2022/10/30 03:14:04;;;;;;;14.28;6.75;;;;;;;14.38;93.59;99811.55;1696634;84;21154;-64
2022/10/30 03:16:32;;;;;;;15.63;6.75;;;;;;;14.29;94.15;99817.38;1696655;84;21026;-63
2022/10/30 03:19:00;;;;;;;15.70;7.05;;;;;;;14.35;93.89;99807.73;1696618;84;21474;-64
2022/10/30 03:21:27;;;;;;;12.93;6.58;;;;;;;14.31;94.42;99814.62;1696752;84;21014;-64
2022/10/30 03:23:54;;;;;;;12.65;6.95;;;;;;;14.21;94.41;99798.41;1696886;84;21109;-64
2022/10/30 03:26:21;;;;;;;18.95;6.75;;;;;;;14.35;93.90;99802.92;1696727;84;21249;-63
2022/10/30 03:28:53;;;;;;;12.18;6.70;;;;;;;14.41;92.98;99800.77;1696890;84;21052;-64
2022/10/30 03:31:20;;;;;;;13.08;6.97;;;;;;;14.33;93.08;99795.53;1696700;84;21052;-64
2022/10/30 03:33:49;;;;;;;12.00;6.58;;;;;;;14.39;92.57;99809.27;1696498;84;21569;-64
2022/10/30 03:36:15;;;;;;;13.10;6.10;;;;;;;14.10;93.43;99819.35;1696666;84;21060;-64
2022/10/30 03:38:42;;;;;;;16.65;7.15;;;;;;;14.08;93.44;99821.23;1696826;84;21150;-63
2022/10/30 03:41:11;;;;;;;10.28;6.00;;;;;;;14.12;93.59;99813.50;1686666;84;21482;-63
2022/10/30 03:43:38;;;;;;;9.88;6.30;;;;;;;14.15;93.49;99827.88;1686560;84;21050;-64
2022/10/30 03:46:05;;;;;;;11.05;6.55;;;;;;;14.12;93.70;99825.42;1686644;84;21565;-64
2022/10/30 03:48:34;;;;;;;13.15;6.20;;;;;;;13.96;94.40;99819.66;1707057;84;21109;-64
2022/10/30 03:51:01;;;;;;;15.18;5.97;;;;;;;13.82;95.18;99831.01;1706758;84;21223;-64
2022/10/30 03:53:29;;;;;;;15.63;5.70;;;;;;;13.94;94.55;99824.20;1706882;84;21246;-64
2022/10/30 03:55:59;;;;;;;13.25;5.90;;;;;;;13.95;94.28;99833.84;1706875;84;21062;-63
2022/10/30 03:58:27;;;;;;;9.60;5.40;;;;;;;13.97;94.12;99826.67;1707195;84;21160;-64
2022/10/30 04:01:04;;;;;;;11.03;5.53;;;;;;;13.85;94.35;99830.02;1706969;83;21081;-63
2022/10/30 04:03:34;;;;;;;10.25;5.75;;;;;;;13.92;94.17;99832.70;1707168;84;21199;-63
2022/10/30 04:06:01;;;;;;;12.73;6.08;;;;;;;14.10;92.92;99822.00;1706885;84;21577;-64
2022/10/30 04:08:28;;;;;;;13.15;5.40;;;;;;;14.11;92.57;99821.92;1707355;84;21057;-64
2022/10/30 04:10:56;;;;;;;14.53;5.45;;;;;;;13.90;93.17;99820.49;1687089;84;21069;-63
2022/10/30 04:13:25;;;;;;;12.33;6.00;;;;;;;13.64;94.32;99818.34;1707203;84;21050;-63
2022/10/30 04:15:53;;;;;;;13.38;5.65;;;;;;;13.71;93.59;99817.98;1707067;84;21648;-63
2022/10/30 04:18:21;;;;;;;9.90;4.90;;;;;;;13.82;92.28;99812.95;1707124;84;21085;-64
2022/10/30 04:20:53;;;;;;;11.28;4.75;;;;;;;13.68;92.10;99804.94;1707000;83;21218;-65
2022/10/30 04:23:20;;;;;;;9.98;4.85;;;;;;;13.68;91.80;99797.84;1707002;84;21105;-65
2022/10/30 04:25:48;;;;;;;10.40;4.78;;;;;;;13.59;91.93;99804.48;1707071;84;21061;-63
2022/10/30 04:28:15;;;;;;;14.68;5.08;;;;;;;13.67;91.44;99816.47;1707355;84;22028;-63
2022/10/30 04:30:45;;;;;;;11.85;4.78;;;;;;;13.78;90.54;99831.27;1707298;82;21545;-64
2022/10/30 04:33:14;;;;;;;9.43;4.85;;;;;;;13.76;89.95;99829.20;1707212;83;21565;-64
2022/10/30 04:35:42;;;;;;;8.03;4.85;;;;;;;13.70;89.41;99824.23;1707014;84;21101;-63
2022/10/30 04:38:14;;;;;;;11.22;4.80;;;;;;;13.66;89.74;99830.63;1673246;85;21067;-63
2022/10/30 04:40:43;;;;;;;13.08;4.75;;;;;;;13.75;88.90;99831.44;1713611;83;21557;-64
2022/10/30 04:43:12;;;;;;;11.30;4.58;;;;;;;13.74;88.64;99829.27;1720469;83;21119;-64
2022/10/30 04:45:40;;;;;;;11.10;4.28;;;;;;;13.79;88.54;99842.25;1725477;83;21057;-63
2022/10/30 04:48:16;;;;;;;8.73;4.80;;;;;;;13.68;88.86;99839.33;1725948;83;21589;-64
2022/10/30 04:50:44;;;;;;;8.35;4.20;;;;;;;13.80;88.62;99846.59;1725903;83;21085;-64
2022/10/30 04:53:15;;;;;;;10.10;4.30;;;;;;;13.79;88.40;99846.22;1709517;83;21332;-64
2022/10/30 04:55:43;;;;;;;12.10;5.03;;;;;;;13.81;88.07;99850.97;1725751;83;21631;-64
2022/10/30 04:58:11;;;;;;;11.97;4.20;;;;;;;13.82;87.86;99852.66;1725928;81;21061;-64
2022/10/30 05:00:41;;;;;;;11.75;4.62;;;;;;;13.80;87.89;99846.15;1725826;82;21061;-63
2022/10/30 05:03:15;;;;;;;9.15;4.25;;;;;;;13.93;87.17;99853.40;1725527;82;21120;-64
2022/10/30 05:05:42;;;;;;;10.53;4.53;;;;;;;13.94;87.03;99852.00;1709265;83;21892;-64
2022/10/30 05:08:09;;;;;;;12.40;5.12;;;;;;;14.03;85.71;99855.47;1725710;82;22149;-64
2022/10/30 05:10:40;;;;;;;8.68;4.47;;;;;;;13.93;85.72;99859.55;1725923;83;21065;-65
2022/10/30 05:13:10;;;;;;;7.70;3.90;;;;;;;13.88;85.21;99860.75;1725904;83;21049;-64
2022/10/30 05:15:37;;;;;;;11.78;3.95;;;;;;;13.94;83.77;99864.36;1726149;82;21006;-64
2022/10/30 05:18:04;;;;;;;16.25;4.60;;;;;;;13.83;82.80;99868.94;1725763;83;23329;-64
2022/10/30 05:20:30;;;;;;;8.10;3.95;;;;;;;13.96;82.03;99870.43;1725590;83;21585;-64
2022/10/30 05:22:58;;;;;;;11.08;4.35;;;;;;;13.76;82.10;99871.06;1725755;82;21486;-65
2022/10/30 05:25:26;;;;;;;8.33;3.30;;;;;;;13.85;82.06;99881.16;1726097;82;21135;-64
2022/10/30 05:28:04;;;;;;;10.25;3.60;;;;;;;13.80;81.77;99874.38;1725710;83;21073;-64
2022/10/30 05:30:34;;;;;;;12.75;3.90;;;;;;;13.88;81.65;99888.06;1725744;82;21824;-65
2022/10/30 05:33:04;;;;;;;10.65;3.55;;;;;;;13.89;81.58;99884.47;1726062;83;21069;-64
2022/10/30 05:35:33;;;;;;;8.43;3.70;;;;;;;13.97;81.45;99886.24;1726328;83;21586;-64
2022/10/30 05:38:00;;;;;;;11.18;3.77;;;;;;;14.09;80.64;99883.86;1725933;83;21078;-64
2022/10/30 05:40:27;;;;;;;12.20;3.12;;;;;;;14.17;80.31;99898.83;1723277;83;21037;-65
2022/10/30 05:42:54;;;;;;;7.58;3.50;;;;;;;14.08;80.67;99900.66;1713128;82;21220;-65
2022/10/30 05:45:21;;;;;;;11.40;3.62;;;;;;;14.17;80.46;99895.73;1708304;83;21487;-66
2022/10/30 05:47:57;;;;;;;8.35;3.80;;;;;;;14.03;80.61;99904.45;1707233;84;21062;-65
2022/10/30 05:50:25;;;;;;;8.13;3.67;;;;;;;14.15;80.51;99911.30;1707080;84;21046;-66
2022/10/30 05:53:00;;;;;;;7.90;3.50;;;;;;;13.99;80.69;99905.55;1705015;83;21629;-64
2022/10/30 05:55:27;;;;;;;7.65;3.30;;;;;;;14.16;80.15;99899.78;1707472;84;21549;-66
2022/10/30 05:58:01;;;;;;;7.25;3.17;;;;;;;14.11;80.32;99912.44;1702597;84;21166;-64
2022/10/30 06:00:30;;;;;;;10.35;3.33;;;;;;;14.21;79.99;99909.65;1707118;84;21049;-65
2022/10/30 06:03:05;;;;;;;6.25;3.20;;;;;;;14.15;79.35;99915.27;1707058;83;21112;-64
2022/10/30 06:05:36;;;;;;;11.60;3.12;;;;;;;14.13;78.39;99925.13;1707018;84;21029;-64
2022/10/30 06:08:04;;;;;;;11.93;3.35;;;;;;;14.02;78.10;99913.31;1707203;84;22252;-64
2022/10/30 06:10:33;;;;;;;11.63;3.60;;;;;;;14.15;77.72;99928.52;1707288;84;21648;-65
2022/10/30 06:13:04;;;;;;;9.35;3.17;;;;;;;14.22;77.59;99927.27;1706162;83;21481;-64
2022/10/30 06:15:33;;;;;;;8.13;2.92;;;;;;;14.22;77.00;99931.23;1672786;85;21617;-64
2022/10/30 06:18:00;;;;;;;9.58;2.80;;;;;;;14.15;76.71;99933.81;1707034;84;21073;-65
2022/10/30 06:20:41;;;;;;;7.62;2.87;;;;;;;14.13;76.84;99927.77;1706701;83;21275;-64
2022/10/30 06:23:25;;;;;;;7.55;2.60;;;;;;;14.11;75.41;99928.32;1665419;84;21584;-65
2022/10/30 06:25:57;;;;;;;8.10;2.77;;;;;;;14.27;74.52;99939.30;1706487;83;21021;-66
2022/10/30 06:28:38;;;;;;;8.55;3.30;;;;;;;14.35;74.02;99934.05;1706454;83;21117;-64
2022/10/30 06:31:05;;;;;;;10.13;3.12;;;;;;;14.43;73.62;99943.28;1707006;83;21155;-65
2022/10/30 06:33:32;;;;;;;8.30;2.95;;;;;;;14.33;73.73;99947.36;1707151;84;21305;-66
2022/10/30 06:36:00;;;;;;;7.70;3.00;;;;;;;14.34;73.96;99950.41;1707239;84;21081;-64
2022/10/30 06:38:27;;;;;;;11.30;3.08;;;;;;;14.42;74.16;99958.80;1686990;84;21522;-64
2022/10/30 06:40:54;;;;;;;8.30;2.77;;;;;;;14.35;74.55;99948.61;1706984;83;21074;-65
2022/10/30 06:43:38;;;;;;;6.37;3.08;;;;;;;14.30;74.94;99952.84;1704871;83;21569;-64
2022/10/30 06:46:06;;;;;;;9.93;2.60;;;;;;;14.42;75.19;99956.16;1706542;83;21151;-65
2022/10/30 06:48:35;;;;;;;11.25;3.22;;;;;;;14.57;74.65;99945.19;1707002;84;21053;-64
2022/10/30 06:51:02;;;;;;;8.55;2.35;;;;;;;14.58;74.73;99948.20;1707026;84;21052;-65
2022/10/30 06:53:31;;;;;;;11.18;2.95;;;;;;;14.47;75.40;99953.25;1707149;83;21604;-64
2022/10/30 06:56:02;;;;;;;9.38;3.15;;;;;;;14.47;75.49;99954.58;1704208;84;21572;-65
2022/10/30 06:58:38;;;;;;;8.23;2.40;;;;;;;14.64;74.34;99952.32;1691664;83;21159;-64
2022/10/30 07:01:10;;;;;;;7.17;2.35;;;;;;;14.54;74.66;99956.38;1648660;87;21581;-64
2022/10/30 07:03:38;;;;;;;7.75;2.55;;;;;;;14.52;74.54;99956.97;1704169;83;21129;-65
2022/10/30 07:06:06;;;;;;;7.08;2.08;;;;;;;14.56;74.18;99954.53;1706972;83;21085;-64
2022/10/30 07:08:33;;;;;;;5.10;2.27;;;;;;;14.60;73.50;99958.73;1707409;84;21053;-64
2022/10/30 07:10:59;;;;;;;6.62;2.17;;;;;;;14.59;73.25;99959.69;1707004;83;21692;-65
2022/10/30 07:13:26;;;;;;;8.95;2.17;;;;;;;14.59;73.48;99959.69;1706919;84;21131;-64
2022/10/30 07:15:54;;;;;;;7.40;2.90;;;;;;;14.45;73.50;99953.33;1706405;83;21163;-66
2022/10/30 07:18:24;;;;;;;6.20;2.12;;;;;;;14.57;72.96;99960.23;1706924;84;21129;-66
2022/10/30 07:20:55;;;;;;;5.50;1.82;;;;;;;14.51;72.92;99956.56;1706659;83;21633;-67
2022/10/30 07:23:22;;;;;;;8.95;2.30;;;;;;;14.48;72.88;99957.12;1706965;84;21253;-65
2022/10/30 07:25:49;;;;;;;10.75;2.40;;;;;;;14.41;73.38;99957.08;1707051;84;21143;-64
2022/10/30 07:28:20;;;;;;;7.40;2.30;;;;;;;14.37;73.54;99953.36;1705536;83;21100;-65
2022/10/30 07:30:58;;;;;;;6.75;2.17;;;;;;;14.51;72.57;99957.41;1670410;85;21554;-64
2022/10/30 07:33:26;;;;;;;7.87;1.95;;;;;;;14.64;72.12;99953.65;1697185;84;21112;-65
2022/10/30 07:36:02;;;;;;;8.48;2.22;;;;;;;14.41;72.65;99951.78;1707094;84;21128;-65
2022/10/30 07:38:32;;;;;;;7.60;1.87;;;;;;;14.44;72.70;99951.59;1673742;83;21096;-64
2022/10/30 07:41:02;;;;;;;4.65;1.60;;;;;;;14.52;72.49;99952.99;1708748;83;21084;-66
2022/10/30 07:43:36;;;;;;;7.87;1.95;;;;;;;14.30;72.67;99946.22;1719038;83;21612;-65
2022/10/30 07:46:21;;;;;;;7.00;1.82;;;;;;;14.43;72.77;99944.60;1725688;82;21093;-65
2022/10/30 07:48:59;;;;;;;9.63;1.80;;;;;;;14.46;72.80;99941.77;1723604;82;21102;-63
2022/10/30 07:51:31;;;;;;;5.83;1.92;;;;;;;14.59;72.58;99939.33;1724515;82;21038;-65
2022/10/30 07:55:37;;;;;;;9.53;2.47;;;;;;;13.98;74.75;99938.23;1796500;79;22580;-65
2022/10/30 07:58:04;;;;;;;5.83;1.87;;;;;;;14.23;73.86;99931.61;1752270;81;21097;-65
2022/10/30 08:00:33;;;;;;;7.37;2.30;;;;;;;14.28;73.63;99941.47;1743378;82;21252;-65
2022/10/30 08:03:08;;;;;;;6.80;2.10;;;;;;;14.44;73.38;99934.85;1746316;82;21157;-65
2022/10/30 08:05:37;;;;;;;10.28;2.65;;;;;;;14.52;73.28;99931.80;1742328;82;21584;-65
2022/10/30 08:08:06;;;;;;;7.33;1.80;;;;;;;14.53;72.09;99939.63;1747824;81;21018;-64
2022/10/30 08:10:35;;;;;;;4.47;2.15;;;;;;;14.64;71.53;99941.72;1748112;81;21518;-64
2022/10/30 08:13:03;;;;;;;7.85;1.90;;;;;;;14.70;70.92;99945.36;1748049;82;21132;-65
2022/10/30 08:15:31;;;;;;;10.10;2.47;;;;;;;14.79;70.82;99942.63;1748060;82;21076;-66
2022/10/30 08:18:00;;;;;;;7.08;2.15;;;;;;;14.83;70.97;99954.77;1747799;82;21056;-65
2022/10/30 08:20:27;;;;;;;9.70;2.45;;;;;;;14.85;71.14;99957.71;1748199;82;21521;-64
2022/10/30 08:22:56;;;;;;;9.08;2.30;;;;;;;14.88;70.58;99958.88;1748013;82;21036;-65
2022/10/30 08:25:28;;;;;;;6.75;2.40;;;;;;;14.94;70.77;99959.47;1747934;82;21356;-64
2022/10/30 08:27:58;;;;;;;10.45;2.40;;;;;;;14.86;70.44;99952.81;1747396;82;21061;-65
2022/10/30 08:30:28;;;;;;;6.70;1.92;;;;;;;14.85;70.54;99953.73;1748137;82;21138;-66
2022/10/30 08:32:59;;;;;;;7.08;2.40;;;;;;;14.86;70.94;99955.91;1747832;82;21010;-65
2022/10/30 08:35:50;;;;;;;8.98;2.17;;;;;;;14.95;70.77;99959.83;1703323;82;21124;-66
2022/10/30 08:38:17;;;;;;;6.28;2.00;;;;;;;15.03;70.81;99960.26;1747813;81;21263;-66
2022/10/30 08:40:44;;;;;;;6.15;2.12;;;;;;;15.11;70.09;99963.30;1748022;82;21533;-65
2022/10/30 08:43:12;;;;;;;6.17;1.80;;;;;;;15.15;69.78;99966.16;1748039;82;21053;-65
2022/10/30 08:45:39;;;;;;;6.17;1.82;;;;;;;15.20;69.25;99964.09;1748131;82;21541;-65
2022/10/30 08:48:13;;;;;;;6.35;2.08;;;;;;;15.20;69.04;99964.09;1748077;81;21073;-65
2022/10/30 08:50:40;;;;;;;7.92;2.12;;;;;;;15.14;68.63;99970.22;1748303;82;21958;-66
2022/10/30 08:53:10;;;;;;;6.55;1.65;;;;;;;15.31;68.39;99972.27;1748083;82;21093;-66
2022/10/30 08:55:37;;;;;;;6.67;2.00;;;;;;;15.02;68.53;99964.72;1736625;81;21042;-65
2022/10/30 08:58:06;;;;;;;8.83;2.00;;;;;;;15.20;68.25;99968.06;1734832;82;21006;-65
2022/10/30 09:00:34;;;;;;;7.53;1.85;;;;;;;15.14;68.16;99967.12;1735078;82;21531;-65
2022/10/30 09:03:05;;;;;;;8.78;1.82;;;;;;;14.99;68.14;99966.67;1677352;82;21125;-65
2022/10/30 09:05:36;;;;;;;7.25;2.08;;;;;;;15.00;68.40;99965.72;1691930;82;21566;-64
2022/10/30 09:08:23;;;;;;;9.28;1.98;;;;;;;14.90;68.42;99962.27;1734027;82;21534;-65
2022/10/30 09:10:59;;;;;;;5.97;1.80;;;;;;;14.99;67.88;99956.91;1733036;82;20999;-67
2022/10/30 09:13:26;;;;;;;7.45;2.00;;;;;;;15.09;67.75;99962.53;1734350;82;21089;-66
2022/10/30 09:15:53;;;;;;;7.85;1.62;;;;;;;15.08;67.82;99956.86;1734206;82;21282;-65
2022/10/30 09:18:21;;;;;;;5.62;1.87;;;;;;;15.21;67.64;99959.18;1734061;82;21053;-65
2022/10/30 09:20:49;;;;;;;7.90;2.00;;;;;;;15.34;67.07;99958.44;1734040;82;21042;-65
2022/10/30 09:23:17;;;;;;;5.72;1.98;;;;;;;15.41;66.62;99951.82;1733995;82;20995;-65
2022/10/30 09:25:45;;;;;;;6.53;1.70;;;;;;;15.50;66.74;99951.27;1734583;82;21058;-65
2022/10/30 09:28:13;;;;;;;6.53;1.80;;;;;;;15.46;66.32;99951.06;1733205;82;21157;-66
2022/10/30 09:30:45;;;;;;;7.90;2.05;;;;;;;15.36;66.33;99952.58;1715591;82;21081;-65
2022/10/30 09:33:12;;;;;;;5.17;1.80;;;;;;;15.43;65.91;99950.78;1734294;82;21128;-65
2022/10/30 09:35:43;;;;;;;7.05;1.87;;;;;;;15.48;65.54;99954.48;1730757;82;21003;-65
2022/10/30 09:38:11;;;;;;;7.30;2.00;;;;;;;15.48;65.93;99950.50;1734053;82;21109;-66
2022/10/30 09:40:59;;;;;;;13.58;2.10;;;;;;;15.51;65.74;99953.84;1734189;82;21828;-65
2022/10/30 09:43:52;;;;;;;9.73;2.12;;;;;;;15.70;65.49;99958.03;1733766;82;21058;-69
2022/10/30 09:46:33;;;;;;;3.80;1.90;;;;;;;15.32;66.33;99949.23;1704690;84;21973;-64
2022/10/30 09:49:58;;;;;;;7.53;1.77;;;;;;;15.25;67.07;99946.13;1704828;84;21061;-64
2022/10/30 09:53:02;;;;;;;7.03;2.05;;;;;;;15.37;66.82;99956.47;1704749;84;21086;-66
2022/10/30 09:55:51;;;;;;;6.20;2.02;;;;;;;15.46;66.63;99959.03;1694288;83;21209;-65
2022/10/30 09:58:57;;;;;;;6.03;1.60;;;;;;;15.23;67.10;99953.31;1725773;83;21052;-64
2022/10/30 10:01:28;;;;;;;4.83;1.72;;;;;;;15.50;66.14;99948.13;1691011;83;21075;-66
2022/10/30 10:04:28;;;;;;;4.58;1.95;;;;;;;15.47;66.38;99941.70;1725751;83;21050;-65
2022/10/30 10:07:22;;;;;;;6.80;2.05;;;;;;;15.50;66.15;99944.16;1725943;83;21054;-65
2022/10/30 10:10:00;;;;;;;;;;;;;;;15.45;66.40;99946.72;1728575;83;21170;-65
2022/10/30 10:12:36;;;;;;;7.47;2.10;;;;;;;15.43;66.11;99952.59;1725282;83;20137;-66
2022/10/30 10:15:27;;;;;;;8.05;2.65;;;;;;;15.46;66.22;99946.64;1725860;83;21069;-65
2022/10/30 10:17:54;;;;;;;7.33;2.60;;;;;;;15.43;66.56;99947.28;1725840;83;21044;-65
2022/10/30 10:20:40;;;;;;;9.90;2.10;;;;;;;15.34;66.60;99942.52;1726055;83;21080;-65
2022/10/30 10:23:21;;;;;;;5.97;1.90;;;;;;;15.48;66.33;99950.50;1726066;83;21195;-66
2022/10/30 10:25:53;;;;;;;7.92;2.30;;;;;;;15.49;65.97;99949.58;1724943;83;22072;-65
2022/10/30 10:28:43;;;;;;;6.95;2.42;;;;;;;15.46;66.23;99945.31;1726280;83;21069;-65
2022/10/30 10:31:36;;;;;;;7.03;2.02;;;;;;;15.44;66.49;99945.88;1725722;83;21080;-65
2022/10/30 10:34:47;;;;;;;6.53;1.90;;;;;;;15.34;66.68;99944.70;1725858;83;21568;-65
2022/10/30 10:37:45;;;;;;;10.93;3.33;;;;;;;15.42;66.80;99945.11;1663387;86;21615;-65
2022/10/30 10:40:29;;;;;;;9.75;2.22;;;;;;;15.52;66.50;99948.05;1663582;86;21581;-65
2022/10/30 10:43:31;;;;;;;4.87;2.22;;;;;;;15.40;66.76;99937.70;1704980;83;21119;-64
2022/10/30 10:46:40;;;;;;;5.35;2.27;;;;;;;15.23;66.69;99938.72;1755906;81;21066;-65
2022/10/30 10:49:23;;;;;;;6.33;1.70;;;;;;;15.14;66.72;99936.61;1756002;81;21052;-65
2022/10/30 10:52:04;;;;;;;7.40;2.08;;;;;;;15.26;66.70;99934.55;1716013;81;21217;-65
2022/10/30 10:54:36;;;;;;;6.65;2.25;;;;;;;15.28;65.76;99928.69;1753668;81;21137;-64
2022/10/30 10:57:04;;;;;;;7.67;1.72;;;;;;;15.11;65.63;99930.14;1721935;82;21045;-65
2022/10/30 10:59:44;;;;;;;7.62;2.67;;;;;;;15.19;65.61;99919.95;1734366;82;21034;-65
2022/10/30 11:02:36;;;;;;;4.75;2.30;;;;;;;15.42;65.38;99923.03;1734170;82;21057;-66
2022/10/30 11:05:24;;;;;;;6.53;2.50;;;;;;;15.45;65.41;99925.48;1734158;82;21089;-65
2022/10/30 11:07:52;;;;;;;6.90;2.15;;;;;;;15.51;65.11;99922.47;1733912;82;21038;-66
2022/10/30 11:10:19;;;;;;;4.40;1.70;;;;;;;15.66;64.28;99924.17;1734295;82;21029;-66
2022/10/30 11:12:47;;;;;;;9.00;1.90;;;;;;;15.60;62.52;99917.93;1734345;82;21055;-65
2022/10/30 11:15:38;;;;;;;6.78;1.90;;;;;;;15.84;62.36;99908.94;1734043;82;21098;-66
2022/10/30 11:18:10;;;;;;;7.40;2.10;;;;;;;15.96;61.33;99910.45;1731051;82;21557;-64
2022/10/30 11:20:57;;;;;;;6.00;1.80;;;;;;;15.79;61.83;99908.86;1734264;82;21082;-66
2022/10/30 11:23:39;;;;;;;5.37;2.02;;;;;;;15.78;62.28;99903.16;1734068;82;21034;-66
2022/10/30 11:26:23;;;;;;;5.30;1.85;;;;;;;15.78;61.88;99897.84;1734228;82;21066;-65
2022/10/30 11:29:13;;;;;;;4.80;1.80;;;;;;;15.81;61.97;99893.21;1734222;82;21029;-66
2022/10/30 11:31:43;;;;;;;5.40;2.17;;;;;;;15.68;62.07;99894.88;1734174;82;21229;-65
2022/10/30 11:34:35;;;;;;;4.90;1.70;;;;;;;15.80;62.08;99888.83;1734125;82;21633;-66
2022/10/30 11:37:03;;;;;;;8.45;2.60;;;;;;;15.81;62.35;99887.05;1713096;82;21057;-66
2022/10/30 11:39:34;;;;;;;5.72;2.05;;;;;;;15.84;62.80;99885.53;1734357;82;21077;-67
2022/10/30 11:42:15;;;;;;;5.75;2.45;;;;;;;15.85;62.87;99881.91;1733968;82;21113;-66
2022/10/30 11:44:48;;;;;;;5.78;2.05;;;;;;;15.94;62.89;99886.64;1718851;82;21281;-66
2022/10/30 11:47:22;;;;;;;5.47;1.70;;;;;;;15.97;62.28;99879.83;1704930;84;21263;-64
2022/10/30 11:49:52;;;;;;;8.58;1.92;;;;;;;15.87;61.56;99884.00;1704926;84;21052;-66
2022/10/30 11:52:21;;;;;;;2.90;1.60;;;;;;;15.75;62.22;99896.72;1705439;84;21081;-66
2022/10/30 11:55:02;;;;;;;5.72;1.50;;;;;;;15.82;61.53;99889.59;1705655;83;21562;-65
2022/10/30 11:57:34;;;;;;;5.17;1.90;;;;;;;15.93;61.19;99886.27;1713066;83;21584;-66